Time;durP1;ratioP1;P1;durP2;ratioP2;P2;SDS_P1;SDS_P2;PMS_P1;PMS_P2;Temp;Humidity;BMP_temperature;BMP_pressure;BME280_temperature;BME280_humidity;BME280_pressure;Samples;Min_cycle;Max_cycle;Signal;HPM_P1;HPM_P2
2022/09/29 00:01:43;;;;;;;4.33;2.27;;;9.50;93.40;;;;;;5063531;28;20146;-81
2022/09/29 00:04:09;;;;;;;3.40;2.20;;;9.50;93.50;;;;;;5057036;28;20038;-81
2022/09/29 00:06:35;;;;;;;2.77;2.07;;;9.40;93.50;;;;;;5072747;28;20282;-81
2022/09/29 00:09:00;;;;;;;3.22;2.25;;;9.40;93.50;;;;;;5068815;28;20035;-81
2022/09/29 00:11:26;;;;;;;3.27;1.90;;;9.40;93.50;;;;;;5065905;28;20385;-81
2022/09/29 00:13:54;;;;;;;3.33;2.05;;;9.40;93.60;;;;;;5063101;28;20132;-81
2022/09/29 00:16:20;;;;;;;2.70;1.90;;;9.40;93.60;;;;;;5047127;28;20032;-81
2022/09/29 00:18:46;;;;;;;6.25;2.45;;;9.40;93.70;;;;;;5065307;28;20066;-81
2022/09/29 00:21:18;;;;;;;3.03;2.03;;;9.30;93.60;;;;;;5052664;28;20017;-81
2022/09/29 00:23:44;;;;;;;2.40;1.80;;;9.30;93.60;;;;;;5061370;28;20314;-81
2022/09/29 00:26:16;;;;;;;2.92;2.03;;;9.30;93.70;;;;;;5092177;27;20061;-81
2022/09/29 00:28:48;;;;;;;2.72;1.92;;;9.30;93.70;;;;;;5043760;28;20277;-81
2022/09/29 00:31:15;;;;;;;2.63;1.97;;;9.30;93.80;;;;;;5065473;28;20018;-81
2022/09/29 00:33:40;;;;;;;3.13;2.10;;;9.30;93.80;;;;;;5057215;28;20594;-81
2022/09/29 00:36:11;;;;;;;3.00;2.05;;;9.20;93.90;;;;;;5067162;28;20017;-81
2022/09/29 00:38:38;;;;;;;3.17;2.00;;;9.20;94.30;;;;;;5073765;28;20031;-81
2022/09/29 00:41:05;;;;;;;2.53;1.93;;;9.20;93.90;;;;;;5068217;28;20030;-81
2022/09/29 00:43:56;;;;;;;2.70;2.00;;;9.20;94.00;;;;;;5043295;28;20346;-81
2022/09/29 00:46:24;;;;;;;3.42;2.00;;;9.20;93.90;;;;;;5069117;28;20528;-81
2022/09/29 00:48:50;;;;;;;2.53;1.88;;;9.20;94.00;;;;;;5049776;28;20032;-81
2022/09/29 00:51:18;;;;;;;3.63;2.10;;;9.10;93.90;;;;;;5074587;28;20080;-81
2022/09/29 00:53:44;;;;;;;2.87;2.10;;;9.10;93.90;;;;;;5056669;28;20248;-81
2022/09/29 00:56:14;;;;;;;3.15;2.00;;;9.10;93.90;;;;;;5071788;28;20769;-81
2022/09/29 00:58:53;;;;;;;3.50;2.20;;;9.10;94.00;;;;;;5046847;28;20024;-81
2022/09/29 01:01:21;;;;;;;3.38;2.15;;;9.10;94.00;;;;;;5053394;28;20096;-81
2022/09/29 01:03:49;;;;;;;3.60;2.00;;;9.00;94.00;;;;;;5057458;28;22382;-81
2022/09/29 01:06:38;;;;;;;2.80;1.90;;;9.00;94.00;;;;;;5075549;28;20063;-81
2022/09/29 01:09:07;;;;;;;3.10;1.90;;;9.00;94.00;;;;;;5077262;27;20012;-82
2022/09/29 01:11:33;;;;;;;2.50;1.80;;;9.00;94.00;;;;;;5072889;28;20077;-81
2022/09/29 01:14:03;;;;;;;3.20;1.90;;;9.00;94.00;;;;;;5060244;28;20050;-81
2022/09/29 01:16:31;;;;;;;2.97;2.03;;;8.90;94.00;;;;;;5057136;28;20058;-81
2022/09/29 01:18:59;;;;;;;2.53;1.90;;;8.90;94.00;;;;;;5072407;28;20020;-81
2022/09/29 01:21:47;;;;;;;2.60;1.77;;;8.90;93.90;;;;;;5066390;28;20028;-81
2022/09/29 01:24:31;;;;;;;2.80;1.73;;;8.90;93.90;;;;;;5030469;28;20103;-81
2022/09/29 01:27:15;;;;;;;3.40;1.80;;;8.80;93.90;;;;;;5070697;28;20069;-81
2022/09/29 01:30:05;;;;;;;3.05;2.00;;;8.80;93.90;;;;;;5050185;28;20222;-81
2022/09/29 01:32:48;;;;;;;3.30;2.03;;;8.80;93.90;;;;;;5040748;28;20071;-81
2022/09/29 01:35:36;;;;;;;2.72;1.90;;;8.80;93.90;;;;;;5063121;28;20040;-81
2022/09/29 01:38:26;;;;;;;2.97;1.70;;;8.70;93.90;;;;;;5063762;28;20350;-81
2022/09/29 01:41:34;;;;;;;3.10;1.85;;;8.70;93.90;;;;;;5052361;28;20111;-81
2022/09/29 01:44:11;;;;;;;2.47;1.80;;;8.70;93.90;;;;;;4962597;28;20037;-81
2022/09/29 01:46:41;;;;;;;2.30;1.67;;;8.60;93.90;;;;;;4967900;28;20513;-81
2022/09/29 01:49:09;;;;;;;2.22;1.58;;;8.60;93.90;;;;;;5035122;28;20044;-80
2022/09/29 01:51:44;;;;;;;2.45;1.83;;;8.60;94.30;;;;;;5065179;28;20400;-80
2022/09/29 01:54:15;;;;;;;3.08;1.80;;;8.60;94.00;;;;;;5076678;28;20080;-80
2022/09/29 01:56:55;;;;;;;1.92;1.50;;;8.50;94.00;;;;;;5070146;28;20069;-80
2022/09/29 01:59:27;;;;;;;3.33;1.70;;;8.50;94.30;;;;;;5061572;28;20031;-80
2022/09/29 02:01:59;;;;;;;3.03;2.05;;;8.50;94.10;;;;;;5080449;28;20044;-80
2022/09/29 02:04:34;;;;;;;2.42;1.73;;;8.50;94.10;;;;;;5066617;28;20531;-80
2022/09/29 02:07:06;;;;;;;2.72;1.67;;;8.50;94.10;;;;;;5073077;28;20020;-80
2022/09/29 02:09:41;;;;;;;2.83;1.90;;;8.40;94.00;;;;;;5061239;28;20069;-80
2022/09/29 02:12:09;;;;;;;3.03;1.93;;;8.40;94.00;;;;;;5069825;28;20031;-80
2022/09/29 02:14:44;;;;;;;2.13;1.83;;;8.40;94.00;;;;;;5059463;27;20356;-80
2022/09/29 02:17:12;;;;;;;2.55;1.70;;;8.40;93.90;;;;;;5074017;28;20020;-80
2022/09/29 02:19:41;;;;;;;2.80;1.80;;;8.30;93.90;;;;;;5087521;27;20081;-80
2022/09/29 02:22:06;;;;;;;3.03;2.10;;;8.30;94.00;;;;;;5070298;28;20652;-79
2022/09/29 02:24:32;;;;;;;2.40;1.77;;;8.30;94.00;;;;;;5092408;27;20321;-80
2022/09/29 02:26:58;;;;;;;3.35;1.95;;;8.20;94.00;;;;;;5056175;28;20030;-80
2022/09/29 02:29:25;;;;;;;3.60;1.80;;;8.30;94.10;;;;;;5099112;27;20028;-80
2022/09/29 02:31:51;;;;;;;2.40;1.70;;;8.20;94.10;;;;;;5061561;28;20024;-80
2022/09/29 02:34:20;;;;;;;2.20;1.65;;;8.20;94.10;;;;;;5065290;28;20451;-80
2022/09/29 02:36:51;;;;;;;3.17;1.90;;;8.10;94.20;;;;;;5071281;28;20239;-80
2022/09/29 02:39:42;;;;;;;2.90;2.08;;;8.10;94.20;;;;;;5062780;28;20033;-80
2022/09/29 02:42:43;;;;;;;2.67;1.90;;;8.10;94.20;;;;;;5083824;28;20085;-80
2022/09/29 02:45:12;;;;;;;2.78;1.80;;;8.10;94.10;;;;;;5070639;28;20020;-80
2022/09/29 02:48:12;;;;;;;2.42;1.63;;;8.10;94.20;;;;;;5040279;28;20146;-80
2022/09/29 02:50:46;;;;;;;2.88;1.80;;;8.00;94.10;;;;;;5042288;28;20246;-80
2022/09/29 02:53:15;;;;;;;3.10;1.70;;;8.00;94.10;;;;;;5069549;28;20012;-80
2022/09/29 02:55:56;;;;;;;3.17;2.00;;;8.00;94.20;;;;;;5057978;28;20027;-80
2022/09/29 02:58:28;;;;;;;3.13;1.67;;;8.00;94.10;;;;;;5057094;28;20131;-80
2022/09/29 03:00:56;;;;;;;3.25;1.75;;;8.00;94.20;;;;;;5071109;28;20048;-80
2022/09/29 03:03:21;;;;;;;2.60;1.80;;;7.90;94.10;;;;;;5058647;28;20461;-80
2022/09/29 03:05:47;;;;;;;2.67;1.80;;;7.90;94.10;;;;;;5066699;28;20205;-80
2022/09/29 03:08:13;;;;;;;3.10;1.90;;;7.90;94.50;;;;;;5073962;28;20028;-80
2022/09/29 03:10:38;;;;;;;2.53;1.70;;;7.90;94.20;;;;;;5072519;28;20269;-80
2022/09/29 03:13:04;;;;;;;3.23;1.77;;;7.80;94.20;;;;;;5071104;28;20027;-80
2022/09/29 03:15:29;;;;;;;3.97;2.00;;;7.80;94.20;;;;;;5079142;28;20028;-80
2022/09/29 03:17:56;;;;;;;2.60;1.70;;;7.80;94.20;;;;;;5056445;28;20218;-80
2022/09/29 03:20:22;;;;;;;3.05;1.90;;;7.80;94.20;;;;;;5041451;28;20040;-80
2022/09/29 03:22:47;;;;;;;4.70;2.08;;;7.80;94.20;;;;;;5059647;28;20084;-80
2022/09/29 03:25:13;;;;;;;2.30;1.70;;;7.80;94.20;;;;;;5056800;28;20630;-80
2022/09/29 03:27:39;;;;;;;2.85;1.70;;;7.80;94.20;;;;;;5072672;28;20032;-80
2022/09/29 03:30:06;;;;;;;2.92;2.03;;;7.70;94.20;;;;;;5063432;28;20206;-80
2022/09/29 03:32:31;;;;;;;2.60;1.90;;;7.80;94.30;;;;;;5079498;28;20108;-80
2022/09/29 03:34:57;;;;;;;2.73;1.77;;;7.70;94.30;;;;;;5047782;28;20115;-80
2022/09/29 03:37:23;;;;;;;2.67;1.80;;;7.70;94.40;;;;;;5062650;28;21083;-80
2022/09/29 03:39:48;;;;;;;2.30;1.60;;;7.70;94.40;;;;;;5082681;28;20271;-80
2022/09/29 03:42:15;;;;;;;2.67;2.00;;;7.70;94.40;;;;;;5047404;28;20126;-80
2022/09/29 03:44:40;;;;;;;2.97;1.80;;;7.60;94.40;;;;;;5048962;28;20220;-80
2022/09/29 03:47:06;;;;;;;2.73;1.70;;;7.60;94.40;;;;;;5069724;28;20552;-80
2022/09/29 03:49:31;;;;;;;2.60;1.70;;;7.60;94.40;;;;;;5059745;28;20135;-80
2022/09/29 03:51:57;;;;;;;2.80;1.60;;;7.60;94.40;;;;;;5065801;28;20113;-80
2022/09/29 03:54:25;;;;;;;3.47;1.77;;;7.60;94.40;;;;;;5067802;28;20253;-80
2022/09/29 03:56:50;;;;;;;2.65;1.60;;;7.60;94.40;;;;;;5065751;28;20504;-80
2022/09/29 03:59:16;;;;;;;3.53;1.90;;;7.60;94.40;;;;;;5068336;28;20243;-80
2022/09/29 04:01:41;;;;;;;2.93;1.50;;;7.50;94.30;;;;;;5075899;28;20085;-80
2022/09/29 04:04:08;;;;;;;2.20;1.60;;;7.50;94.40;;;;;;5075520;28;20424;-80
2022/09/29 04:06:35;;;;;;;2.45;1.63;;;7.50;94.40;;;;;;5061252;28;20040;-80
2022/09/29 04:09:01;;;;;;;2.87;1.70;;;7.40;94.40;;;;;;5053360;28;20028;-80
2022/09/29 04:11:27;;;;;;;2.88;1.60;;;7.40;94.70;;;;;;5069727;28;20013;-80
2022/09/29 04:13:52;;;;;;;2.28;1.60;;;7.40;94.50;;;;;;5069234;28;20114;-80
2022/09/29 04:16:18;;;;;;;2.47;1.60;;;7.40;94.50;;;;;;5064803;28;20035;-80
2022/09/29 04:18:44;;;;;;;2.80;1.70;;;7.40;94.60;;;;;;5070612;28;20031;-80
2022/09/29 04:21:10;;;;;;;2.83;1.60;;;7.40;94.60;;;;;;5051088;28;20560;-80
2022/09/29 04:23:37;;;;;;;3.40;1.52;;;7.40;94.60;;;;;;5057537;28;20026;-80
2022/09/29 04:26:03;;;;;;;2.55;1.70;;;7.40;94.60;;;;;;5042487;28;20154;-80
2022/09/29 04:28:33;;;;;;;2.80;1.73;;;7.40;94.60;;;;;;5060613;28;20110;-80
2022/09/29 04:30:58;;;;;;;3.60;1.70;;;7.30;94.60;;;;;;5055542;28;20027;-80
2022/09/29 04:33:24;;;;;;;3.00;1.80;;;7.30;94.60;;;;;;5030056;28;20043;-80
2022/09/29 04:35:50;;;;;;;2.70;1.70;;;7.30;94.70;;;;;;5075710;28;20516;-80
2022/09/29 04:38:16;;;;;;;2.60;1.70;;;7.30;94.70;;;;;;5036237;28;20072;-80
2022/09/29 04:40:41;;;;;;;2.20;1.60;;;7.30;94.70;;;;;;5070267;28;20275;-80
2022/09/29 04:43:07;;;;;;;2.50;1.60;;;7.30;94.70;;;;;;5059559;28;20027;-80
2022/09/29 04:45:33;;;;;;;2.07;1.40;;;7.30;94.70;;;;;;5059428;28;20129;-80
2022/09/29 04:47:58;;;;;;;2.57;1.57;;;7.30;94.70;;;;;;5062336;28;20289;-80
2022/09/29 04:50:24;;;;;;;3.20;2.00;;;7.20;94.70;;;;;;5067552;28;20069;-80
2022/09/29 04:52:50;;;;;;;2.38;1.67;;;7.20;94.70;;;;;;5056642;28;20653;-80
2022/09/29 04:55:16;;;;;;;2.97;1.77;;;7.20;94.70;;;;;;5063613;28;20040;-79
2022/09/29 04:57:43;;;;;;;3.83;1.75;;;7.20;94.70;;;;;;5053244;28;20362;-80
2022/09/29 05:00:10;;;;;;;3.05;1.90;;;7.20;94.70;;;;;;5073730;28;20044;-80
2022/09/29 05:02:36;;;;;;;2.45;1.50;;;7.20;94.70;;;;;;5055000;28;20303;-80
2022/09/29 05:05:02;;;;;;;2.60;1.70;;;7.20;94.80;;;;;;5057719;28;20127;-80
2022/09/29 05:07:28;;;;;;;2.70;1.90;;;7.20;94.80;;;;;;5054261;28;20614;-80
2022/09/29 05:09:54;;;;;;;2.65;1.70;;;7.20;94.90;;;;;;5026065;28;20029;-80
2022/09/29 05:12:20;;;;;;;3.17;1.87;;;7.20;94.90;;;;;;5067098;28;20611;-80
2022/09/29 05:14:46;;;;;;;2.55;1.73;;;7.10;95.00;;;;;;5051428;28;20150;-80
2022/09/29 05:17:11;;;;;;;2.40;1.88;;;7.10;95.00;;;;;;5065787;28;20389;-80
2022/09/29 05:19:37;;;;;;;2.63;1.70;;;7.10;95.00;;;;;;5048418;28;20029;-80
2022/09/29 05:22:03;;;;;;;2.90;1.80;;;7.10;95.00;;;;;;5051724;28;20484;-80
2022/09/29 05:24:28;;;;;;;3.10;1.80;;;7.10;95.10;;;;;;5018797;28;20024;-80
2022/09/29 05:26:54;;;;;;;3.50;1.90;;;7.10;95.10;;;;;;5061105;27;20033;-80
2022/09/29 05:29:20;;;;;;;3.28;2.08;;;7.10;95.10;;;;;;5058631;28;20052;-80
2022/09/29 05:31:45;;;;;;;3.22;1.80;;;7.10;95.10;;;;;;5069156;28;20021;-80
2022/09/29 05:34:11;;;;;;;2.80;1.90;;;7.10;95.20;;;;;;5059089;28;20031;-80
2022/09/29 05:36:37;;;;;;;3.20;1.87;;;7.10;95.20;;;;;;5082868;28;20039;-80
2022/09/29 05:39:02;;;;;;;3.78;1.77;;;7.10;95.30;;;;;;5048467;28;20415;-80
2022/09/29 05:41:28;;;;;;;3.80;1.97;;;7.10;95.30;;;;;;5040920;28;20513;-80
2022/09/29 05:43:55;;;;;;;2.92;2.05;;;7.10;95.30;;;;;;5066320;28;20047;-80
2022/09/29 05:46:21;;;;;;;3.50;1.70;;;7.00;95.30;;;;;;5051735;28;20085;-80
2022/09/29 05:48:47;;;;;;;2.92;1.70;;;7.00;95.30;;;;;;5066113;28;20036;-80
2022/09/29 05:51:16;;;;;;;3.00;1.75;;;7.10;95.40;;;;;;5053849;28;20130;-80
2022/09/29 05:53:42;;;;;;;3.78;1.70;;;7.00;95.40;;;;;;5059829;28;20357;-80
2022/09/29 05:56:10;;;;;;;2.90;1.80;;;7.00;95.40;;;;;;5029620;28;20104;-82
2022/09/29 05:58:37;;;;;;;3.77;1.93;;;7.00;95.50;;;;;;5036251;28;20028;-80
2022/09/29 06:01:07;;;;;;;3.80;2.08;;;7.00;95.50;;;;;;5067392;28;20214;-80
2022/09/29 06:03:34;;;;;;;2.90;2.00;;;7.10;95.50;;;;;;5060996;28;20472;-80
2022/09/29 06:06:11;;;;;;;3.30;2.03;;;7.10;95.60;;;;;;5057336;28;20303;-80
2022/09/29 06:08:38;;;;;;;3.28;2.22;;;7.00;95.50;;;;;;5059986;28;20016;-80
2022/09/29 06:11:10;;;;;;;2.67;1.70;;;7.10;95.70;;;;;;5034961;28;21412;-80
2022/09/29 06:13:42;;;;;;;3.38;2.17;;;7.00;95.60;;;;;;5028348;28;20504;-80
2022/09/29 06:16:08;;;;;;;3.20;2.10;;;7.10;95.70;;;;;;5060052;28;20248;-80
2022/09/29 06:18:35;;;;;;;3.13;1.80;;;7.10;95.80;;;;;;5063761;28;20032;-80
2022/09/29 06:21:02;;;;;;;3.10;1.80;;;7.10;95.90;;;;;;5053675;28;20024;-80
2022/09/29 06:23:28;;;;;;;3.23;1.77;;;7.10;96.10;;;;;;5063516;28;20024;-80
2022/09/29 06:26:03;;;;;;;3.47;1.77;;;7.10;96.50;;;;;;5023424;28;20262;-80
2022/09/29 06:28:30;;;;;;;2.50;1.88;;;7.10;96.20;;;;;;5059017;28;20243;-80
2022/09/29 06:31:04;;;;;;;2.63;1.80;;;7.10;96.30;;;;;;5046015;28;20042;-80
2022/09/29 06:33:31;;;;;;;3.65;2.47;;;7.10;96.40;;;;;;5036537;28;20035;-80
2022/09/29 06:38:42;;;;;;;3.08;1.80;;;7.20;96.70;;;;;;5062179;28;20027;-80
2022/09/29 06:41:08;;;;;;;3.47;1.92;;;7.30;96.90;;;;;;5036512;28;20030;-80
2022/09/29 06:43:34;;;;;;;3.63;2.07;;;7.30;97.10;;;;;;5055603;28;20043;-80
2022/09/29 06:46:00;;;;;;;4.35;2.30;;;7.30;97.30;;;;;;5062142;28;20058;-80
2022/09/29 06:48:28;;;;;;;3.60;2.47;;;7.40;97.50;;;;;;5053542;28;20335;-80
2022/09/29 06:50:54;;;;;;;4.30;2.63;;;7.40;97.70;;;;;;5055445;28;20684;-80
2022/09/29 06:53:19;;;;;;;5.07;2.80;;;7.50;98.00;;;;;;5067565;28;20021;-80
2022/09/29 06:55:52;;;;;;;3.88;2.50;;;7.50;98.30;;;;;;5040026;28;20020;-80
2022/09/29 06:58:17;;;;;;;3.85;2.20;;;7.60;98.50;;;;;;5056769;28;20028;-80
2022/09/29 07:00:43;;;;;;;4.43;2.67;;;7.70;98.80;;;;;;5065354;28;20085;-80
2022/09/29 07:03:08;;;;;;;4.10;2.53;;;7.80;99.20;;;;;;5067605;28;20241;-80
2022/09/29 07:05:34;;;;;;;3.65;2.25;;;7.90;99.50;;;;;;5067929;28;20020;-80
2022/09/29 07:08:01;;;;;;;3.33;2.40;;;7.90;99.70;;;;;;5046221;28;20040;-80
2022/09/29 07:10:27;;;;;;;4.90;2.67;;;8.00;99.90;;;;;;5067521;28;20527;-80
2022/09/29 07:12:54;;;;;;;4.00;2.63;;;8.10;99.90;;;;;;5056853;28;20023;-79
2022/09/29 07:15:20;;;;;;;4.93;2.87;;;8.20;99.90;;;;;;5036548;28;20217;-79
2022/09/29 07:17:50;;;;;;;4.40;2.95;;;8.40;99.90;;;;;;5067958;28;20017;-79
2022/09/29 07:20:15;;;;;;;4.63;3.08;;;8.70;99.90;;;;;;5051557;28;20085;-79
2022/09/29 07:22:45;;;;;;;5.27;2.80;;;9.10;99.90;;;;;;5058922;28;20404;-79
2022/09/29 07:25:10;;;;;;;3.97;2.78;;;9.60;99.90;;;;;;5070288;28;20393;-79
2022/09/29 07:27:36;;;;;;;4.18;3.00;;;10.10;99.90;;;;;;5056618;28;20016;-79
2022/09/29 07:30:02;;;;;;;4.63;2.90;;;10.70;99.90;;;;;;5049497;28;20024;-79
2022/09/29 07:32:31;;;;;;;4.13;2.88;;;11.40;99.90;;;;;;5074494;28;20476;-79
2022/09/29 07:34:57;;;;;;;4.30;2.88;;;12.00;99.90;;;;;;5080676;28;20100;-79
2022/09/29 07:37:24;;;;;;;3.13;2.47;;;12.70;99.90;;;;;;5057280;28;20683;-79
2022/09/29 07:39:50;;;;;;;3.70;2.47;;;13.40;99.90;;;;;;5049719;28;20093;-78
2022/09/29 07:42:17;;;;;;;4.50;2.83;;;14.10;99.90;;;;;;5069155;28;20414;-78
2022/09/29 07:44:42;;;;;;;4.85;2.90;;;14.70;99.90;;;;;;5063730;28;20020;-78
2022/09/29 07:47:08;;;;;;;4.13;2.40;;;15.30;99.90;;;;;;5068786;28;20239;-79
2022/09/29 07:49:34;;;;;;;3.50;2.50;;;15.90;99.90;;;;;;5079627;28;20040;-79
2022/09/29 07:52:00;;;;;;;5.40;2.50;;;16.50;99.90;;;;;;5072603;28;20020;-78
2022/09/29 07:54:25;;;;;;;3.45;2.63;;;17.00;99.90;;;;;;5066134;28;20016;-78
2022/09/29 07:56:51;;;;;;;3.67;2.47;;;17.50;99.90;;;;;;5080775;28;20020;-78
2022/09/29 07:59:16;;;;;;;4.77;2.83;;;17.90;99.90;;;;;;5051353;28;20188;-79
2022/09/29 08:01:42;;;;;;;4.37;2.50;;;18.30;99.90;;;;;;5074476;28;20278;-79
2022/09/29 08:04:08;;;;;;;3.47;2.60;;;18.60;99.90;;;;;;5054921;28;20028;-79
2022/09/29 08:06:33;;;;;;;4.00;2.50;;;19.00;99.90;;;;;;5067356;28;20531;-79
2022/09/29 08:09:02;;;;;;;3.73;2.60;;;19.30;99.90;;;;;;5058917;28;20036;-79
2022/09/29 08:11:28;;;;;;;3.92;2.80;;;19.60;99.90;;;;;;5078793;28;20059;-79
2022/09/29 08:13:53;;;;;;;3.30;2.40;;;20.00;99.90;;;;;;5061856;28;20132;-80
2022/09/29 08:16:20;;;;;;;3.15;2.40;;;20.20;99.90;;;;;;5042718;28;20359;-80
2022/09/29 08:18:45;;;;;;;3.75;2.50;;;20.50;99.90;;;;;;5072126;28;20481;-80
2022/09/29 08:21:14;;;;;;;4.07;2.50;;;20.80;99.90;;;;;;5077372;28;20353;-80
2022/09/29 08:23:41;;;;;;;4.45;2.72;;;21.10;99.60;;;;;;5028860;28;20203;-80
2022/09/29 08:26:16;;;;;;;3.50;2.50;;;21.30;98.90;;;;;;5061087;28;20213;-80
2022/09/29 08:28:43;;;;;;;3.20;2.60;;;21.60;96.90;;;;;;5055793;28;20031;-80
2022/09/29 08:31:18;;;;;;;4.07;2.33;;;21.90;98.30;;;;;;5062336;27;20343;-80
2022/09/29 08:33:44;;;;;;;3.70;2.67;;;22.20;97.60;;;;;;5076324;28;20035;-80
2022/09/29 08:36:15;;;;;;;4.23;2.80;;;22.40;98.40;;;;;;5041969;28;20130;-81
2022/09/29 08:38:43;;;;;;;4.20;2.90;;;22.60;98.20;;;;;;5077672;28;20250;-80
2022/09/29 08:41:32;;;;;;;4.38;2.53;;;22.80;97.50;;;;;;5042983;28;20023;-81
2022/09/29 08:44:18;;;;;;;4.35;2.70;;;23.00;95.10;;;;;;5073375;28;20019;-81
2022/09/29 08:46:50;;;;;;;4.50;2.90;;;23.30;94.30;;;;;;5056377;28;20622;-81
2022/09/29 08:49:26;;;;;;;4.45;2.70;;;23.50;96.30;;;;;;5071218;28;20533;-81
2022/09/29 08:51:57;;;;;;;4.30;2.77;;;23.80;96.40;;;;;;5065654;28;20115;-80
2022/09/29 08:54:36;;;;;;;6.20;2.80;;;24.10;96.80;;;;;;5079949;28;20364;-81
2022/09/29 08:57:04;;;;;;;3.45;2.42;;;24.30;95.10;;;;;;5038490;28;20012;-81
2022/09/29 08:59:30;;;;;;;3.42;2.47;;;24.60;96.60;;;;;;5069584;28;20033;-81
2022/09/29 09:02:08;;;;;;;3.47;2.72;;;24.90;97.00;;;;;;5062731;28;20076;-81
2022/09/29 09:04:42;;;;;;;3.70;3.00;;;25.10;95.50;;;;;;5044867;28;20489;-81
2022/09/29 09:07:25;;;;;;;3.65;2.67;;;25.30;93.90;;;;;;5064606;28;20092;-81
2022/09/29 09:10:10;;;;;;;3.20;2.30;;;25.50;94.00;;;;;;5052368;28;20468;-81
2022/09/29 09:12:48;;;;;;;3.40;2.50;;;25.70;92.20;;;;;;5070321;28;20453;-81
2022/09/29 09:15:39;;;;;;;2.83;2.53;;;26.00;95.50;;;;;;5065908;28;20281;-81
2022/09/29 09:18:37;;;;;;;2.80;2.50;;;26.20;92.70;;;;;;5040939;28;20145;-81
2022/09/29 09:21:08;;;;;;;4.07;3.00;;;26.40;95.00;;;;;;4992750;28;20233;-80
2022/09/29 09:23:34;;;;;;;3.47;2.80;;;26.70;93.80;;;;;;5062378;28;20040;-80
2022/09/29 09:26:03;;;;;;;3.67;2.60;;;26.80;95.90;;;;;;5069398;28;20050;-80
2022/09/29 09:28:34;;;;;;;3.22;2.72;;;27.10;93.70;;;;;;5069549;28;20541;-80
2022/09/29 09:31:38;;;;;;;5.22;2.53;;;27.30;94.20;;;;;;5060238;28;20238;-81
2022/09/29 09:34:09;;;;;;;2.60;2.17;;;27.60;90.30;;;;;;5024836;28;20538;-80
2022/09/29 09:36:41;;;;;;;3.03;2.20;;;27.80;94.10;;;;;;5050206;28;20031;-81
2022/09/29 09:39:25;;;;;;;3.00;2.13;;;28.00;93.70;;;;;;5073849;28;20275;-80
2022/09/29 09:41:55;;;;;;;2.75;2.30;;;28.10;91.60;;;;;;5041923;28;20794;-80
2022/09/29 09:44:28;;;;;;;3.38;2.30;;;28.20;93.20;;;;;;5054847;28;20389;-80
2022/09/29 09:46:55;;;;;;;2.90;2.40;;;28.30;93.10;;;;;;5060619;28;20163;-81
2022/09/29 09:49:53;;;;;;;2.67;2.10;;;28.30;94.50;;;;;;5062976;28;20055;-80
2022/09/29 09:52:55;;;;;;;3.20;2.17;;;28.50;92.30;;;;;;5073078;28;20279;-80
2022/09/29 09:55:23;;;;;;;3.22;2.03;;;28.70;90.60;;;;;;5058960;28;20020;-80
2022/09/29 09:58:08;;;;;;;3.17;2.35;;;28.90;95.00;;;;;;5063719;28;20024;-81
2022/09/29 10:00:43;;;;;;;2.60;2.40;;;29.10;95.30;;;;;;5058842;28;20035;-81
2022/09/29 10:03:11;;;;;;;2.60;2.10;;;29.30;91.80;;;;;;5056909;28;20017;-80
2022/09/29 10:05:44;;;;;;;2.67;2.20;;;29.50;94.70;;;;;;5051882;28;20020;-80
2022/09/29 10:08:18;;;;;;;2.60;2.15;;;29.70;92.00;;;;;;5069493;28;20028;-80
2022/09/29 10:10:44;;;;;;;3.47;2.20;;;29.80;92.20;;;;;;5050577;28;20313;-80
2022/09/29 10:13:12;;;;;;;3.50;2.60;;;29.80;93.50;;;;;;5067930;28;20028;-80
2022/09/29 10:15:41;;;;;;;2.13;1.90;;;29.90;91.80;;;;;;5068463;28;20036;-81
2022/09/29 10:18:29;;;;;;;2.50;2.00;;;29.90;91.50;;;;;;5058843;28;20428;-80
2022/09/29 10:20:55;;;;;;;3.65;2.20;;;29.80;91.00;;;;;;5051341;28;20028;-81
2022/09/29 10:23:33;;;;;;;2.63;2.07;;;29.80;93.20;;;;;;5067985;28;20036;-81
2022/09/29 10:26:05;;;;;;;2.55;1.92;;;29.80;90.20;;;;;;5070623;28;20029;-80
2022/09/29 10:28:51;;;;;;;2.28;2.00;;;29.80;92.30;;;;;;5073118;28;20183;-80
2022/09/29 10:31:28;;;;;;;2.13;1.92;;;29.80;86.30;;;;;;5072914;28;20308;-81
2022/09/29 10:34:15;;;;;;;2.40;1.80;;;29.90;85.00;;;;;;5048131;28;20780;-80
2022/09/29 10:37:02;;;;;;;2.80;1.53;;;29.80;86.10;;;;;;5053602;28;20035;-81
2022/09/29 10:39:43;;;;;;;2.50;2.05;;;29.50;80.00;;;;;;5072804;28;20480;-81
2022/09/29 10:42:16;;;;;;;2.17;1.80;;;29.30;87.80;;;;;;5070373;28;20028;-81
2022/09/29 10:44:48;;;;;;;2.65;1.90;;;29.20;87.20;;;;;;5056510;28;20748;-80
2022/09/29 10:47:14;;;;;;;4.55;1.98;;;29.00;91.40;;;;;;5062420;28;20238;-80
2022/09/29 10:49:40;;;;;;;2.77;1.77;;;28.80;90.90;;;;;;5055436;28;20028;-80
2022/09/29 10:52:21;;;;;;;2.25;1.70;;;28.50;90.20;;;;;;5056255;28;20061;-80
2022/09/29 10:54:59;;;;;;;2.20;1.73;;;28.20;84.40;;;;;;5069671;28;20024;-81
2022/09/29 10:57:30;;;;;;;2.50;1.70;;;28.10;87.90;;;;;;5070006;28;20229;-81
2022/09/29 10:59:57;;;;;;;2.23;1.90;;;28.20;91.40;;;;;;5066371;28;20036;-81
2022/09/29 11:02:33;;;;;;;4.18;1.50;;;28.40;94.70;;;;;;5078768;28;20565;-80
2022/09/29 11:05:04;;;;;;;1.77;1.52;;;28.80;91.90;;;;;;5063870;27;20174;-80
2022/09/29 11:07:33;;;;;;;2.10;1.90;;;29.20;94.80;;;;;;5057139;28;20090;-80
2022/09/29 11:09:58;;;;;;;2.22;1.80;;;29.60;95.90;;;;;;5066793;28;20300;-80
2022/09/29 11:12:30;;;;;;;2.23;1.60;;;30.00;94.80;;;;;;5067483;28;20551;-80
2022/09/29 11:14:56;;;;;;;2.30;1.70;;;30.30;92.70;;;;;;5048997;28;20226;-80
2022/09/29 11:17:29;;;;;;;1.50;1.40;;;30.60;94.10;;;;;;5069642;28;20048;-80
2022/09/29 11:20:01;;;;;;;1.70;1.30;;;30.90;93.30;;;;;;5059201;28;20360;-80
2022/09/29 11:22:57;;;;;;;1.40;1.30;;;31.10;90.30;;;;;;5031342;28;20481;-80
2022/09/29 11:25:32;;;;;;;1.55;1.10;;;31.00;78.60;;;;;;5093320;27;20484;-80
2022/09/29 11:28:13;;;;;;;1.33;1.20;;;30.50;75.80;;;;;;5059569;28;20409;-80
2022/09/29 11:30:53;;;;;;;1.45;1.02;;;30.10;81.10;;;;;;5079011;28;20511;-80
2022/09/29 11:33:44;;;;;;;1.85;1.15;;;29.50;77.70;;;;;;5082968;28;20033;-80
2022/09/29 11:36:20;;;;;;;1.73;1.30;;;28.90;76.80;;;;;;5061269;28;20024;-80
2022/09/29 11:39:01;;;;;;;2.00;1.20;;;28.40;74.10;;;;;;5044801;28;20032;-80
2022/09/29 11:41:53;;;;;;;1.73;1.10;;;27.90;75.30;;;;;;5091516;28;20934;-80
2022/09/29 11:44:40;;;;;;;1.80;1.10;;;27.40;79.00;;;;;;5057799;28;20051;-80
2022/09/29 11:47:33;;;;;;;2.55;1.23;;;26.90;74.80;;;;;;5066996;28;20040;-80
2022/09/29 11:50:20;;;;;;;2.27;0.90;;;26.40;75.90;;;;;;5048124;28;20033;-80
2022/09/29 11:53:07;;;;;;;1.30;0.95;;;26.00;74.00;;;;;;5034917;28;20707;-80
2022/09/29 11:55:51;;;;;;;1.27;0.90;;;25.60;80.30;;;;;;5068525;28;20390;-80
2022/09/29 11:58:22;;;;;;;1.70;0.90;;;25.30;83.60;;;;;;5066296;28;20053;-80
2022/09/29 12:01:28;;;;;;;1.27;0.93;;;25.00;81.80;;;;;;5070426;28;20115;-80
2022/09/29 12:03:57;;;;;;;1.20;0.90;;;24.70;77.40;;;;;;5067255;28;20031;-79
2022/09/29 12:06:30;;;;;;;0.90;0.80;;;24.50;83.90;;;;;;5066494;28;20024;-80
2022/09/29 12:09:15;;;;;;;1.40;0.73;;;24.30;80.80;;;;;;5049205;28;20040;-79
2022/09/29 12:11:50;;;;;;;0.95;0.80;;;24.00;80.10;;;;;;5055157;28;20183;-79
2022/09/29 12:14:34;;;;;;;1.15;0.80;;;23.90;84.60;;;;;;5074474;28;20842;-79
2022/09/29 12:17:07;;;;;;;1.07;0.80;;;23.70;82.60;;;;;;5073749;28;20416;-79
2022/09/29 12:19:38;;;;;;;1.20;0.73;;;23.50;82.90;;;;;;5056365;28;20356;-80
2022/09/29 12:22:09;;;;;;;1.75;0.90;;;23.40;84.10;;;;;;5058553;28;20031;-80
2022/09/29 12:24:45;;;;;;;1.13;0.90;;;23.30;84.80;;;;;;5036016;28;20050;-79
2022/09/29 12:27:33;;;;;;;2.05;0.80;;;23.30;85.30;;;;;;5073324;28;20034;-79
2022/09/29 12:30:14;;;;;;;1.17;0.90;;;23.30;82.60;;;;;;5056183;28;20016;-80
2022/09/29 12:33:32;;;;;;;1.23;0.93;;;23.30;88.20;;;;;;5064089;28;20034;-80
2022/09/29 12:36:43;;;;;;;1.40;0.90;;;23.60;87.60;;;;;;5035703;28;20048;-80
2022/09/29 12:39:33;;;;;;;3.53;0.95;;;24.00;92.10;;;;;;5047710;28;20357;-80
2022/09/29 12:42:28;;;;;;;1.20;0.90;;;24.70;93.20;;;;;;5078525;28;20162;-80
2022/09/29 12:45:21;;;;;;;0.57;0.57;;;25.10;92.30;;;;;;5069510;28;20029;-80
2022/09/29 12:47:51;;;;;;;1.15;0.80;;;25.60;91.60;;;;;;5074028;28;20064;-80
2022/09/29 12:50:25;;;;;;;0.88;0.73;;;25.70;91.60;;;;;;5051204;28;20356;-80
2022/09/29 12:53:11;;;;;;;1.73;0.90;;;25.80;90.40;;;;;;5045600;28;20044;-80
2022/09/29 12:55:52;;;;;;;0.90;0.80;;;25.80;87.30;;;;;;5063092;28;20040;-80
2022/09/29 12:58:40;;;;;;;0.60;0.60;;;25.70;84.50;;;;;;5077619;28;20032;-80
2022/09/29 13:01:19;;;;;;;0.75;0.60;;;25.60;81.30;;;;;;5065927;28;20062;-80
2022/09/29 13:04:22;;;;;;;1.52;0.68;;;25.50;81.60;;;;;;5054823;28;20032;-80
2022/09/29 13:07:27;;;;;;;1.23;0.60;;;25.30;78.70;;;;;;5043375;28;20054;-80
2022/09/29 13:09:55;;;;;;;0.85;0.70;;;25.00;77.30;;;;;;5039770;28;20028;-80
2022/09/29 13:12:43;;;;;;;0.77;0.67;;;24.80;81.40;;;;;;5067988;28;20071;-81
2022/09/29 13:15:47;;;;;;;0.52;0.52;;;24.60;81.70;;;;;;5078785;28;20142;-80
2022/09/29 13:18:22;;;;;;;0.93;0.60;;;24.40;77.60;;;;;;5052476;28;20024;-79
2022/09/29 13:21:25;;;;;;;0.70;0.60;;;24.20;82.20;;;;;;5072837;28;20107;-80
2022/09/29 13:24:12;;;;;;;1.83;0.70;;;24.00;78.80;;;;;;5051586;28;20066;-79